sensor_id;sensor_type;location;lat;lon;timestamp;pressure;altitude;pressure_sealevel;temperature;humidity
67377;BME280;54261;46.086;6.588;2023-03-25T00:03:39;92485.97;;;8.94;46.04
67377;BME280;54261;46.086;6.588;2023-03-25T00:08:47;92490.34;;;9.13;46.05
67377;BME280;54261;46.086;6.588;2023-03-25T00:13:48;92500.59;;;8.88;46.30
67377;BME280;54261;46.086;6.588;2023-03-25T00:18:51;92495.47;;;6.97;50.05
67377;BME280;54261;46.086;6.588;2023-03-25T00:23:52;92503.69;;;7.99;48.84
67377;BME280;54261;46.086;6.588;2023-03-25T00:28:54;92504.00;;;7.69;48.27
67377;BME280;54261;46.086;6.588;2023-03-25T00:33:56;92520.63;;;8.68;47.13
67377;BME280;54261;46.086;6.588;2023-03-25T00:38:58;92526.38;;;7.73;47.32
67377;BME280;54261;46.086;6.588;2023-03-25T00:44:00;92503.88;;;7.88;46.18
67377;BME280;54261;46.086;6.588;2023-03-25T00:49:02;92511.44;;;7.58;47.67
67377;BME280;54261;46.086;6.588;2023-03-25T00:54:04;92535.38;;;7.91;47.56
67377;BME280;54261;46.086;6.588;2023-03-25T00:59:07;92544.28;;;8.74;46.01
67377;BME280;54261;46.086;6.588;2023-03-25T01:04:08;92534.22;;;9.26;45.02
67377;BME280;54261;46.086;6.588;2023-03-25T01:09:15;92536.47;;;8.87;44.12
67377;BME280;54261;46.086;6.588;2023-03-25T01:14:19;92532.91;;;7.95;45.30
67377;BME280;54261;46.086;6.588;2023-03-25T01:19:22;92520.91;;;8.66;44.46
67377;BME280;54261;46.086;6.588;2023-03-25T01:24:24;92511.41;;;8.37;44.97
67377;BME280;54261;46.086;6.588;2023-03-25T01:29:26;92522.44;;;8.81;44.52
67377;BME280;54261;46.086;6.588;2023-03-25T01:34:31;92507.66;;;8.38;44.61
67377;BME280;54261;46.086;6.588;2023-03-25T01:39:33;92485.81;;;8.90;43.50
67377;BME280;54261;46.086;6.588;2023-03-25T01:49:43;92488.00;;;7.55;45.57
67377;BME280;54261;46.086;6.588;2023-03-25T01:54:47;92485.19;;;9.16;43.19
67377;BME280;54261;46.086;6.588;2023-03-25T01:59:52;92481.28;;;9.23;43.58
67377;BME280;54261;46.086;6.588;2023-03-25T02:04:59;92461.28;;;8.06;43.74
67377;BME280;54261;46.086;6.588;2023-03-25T02:10:05;92482.88;;;8.78;43.50
67377;BME280;54261;46.086;6.588;2023-03-25T02:15:09;92475.72;;;9.10;43.25
67377;BME280;54261;46.086;6.588;2023-03-25T02:42:00;92473.94;;;8.83;44.62
67377;BME280;54261;46.086;6.588;2023-03-25T02:47:13;92460.97;;;8.21;44.94
67377;BME280;54261;46.086;6.588;2023-03-25T02:57:25;92489.41;;;8.40;43.77
67377;BME280;54261;46.086;6.588;2023-03-25T03:02:29;92496.19;;;6.17;48.38
67377;BME280;54261;46.086;6.588;2023-03-25T03:07:41;92500.47;;;4.48;55.45
67377;BME280;54261;46.086;6.588;2023-03-25T03:18:09;92522.97;;;5.44;53.52
67377;BME280;54261;46.086;6.588;2023-03-25T03:23:27;92517.25;;;5.02;54.82
67377;BME280;54261;46.086;6.588;2023-03-25T03:28:43;92524.31;;;3.68;59.92
67377;BME280;54261;46.086;6.588;2023-03-25T03:34:02;92516.88;;;2.94;62.21
67377;BME280;54261;46.086;6.588;2023-03-25T03:39:33;92522.81;;;3.51;59.00
67377;BME280;54261;46.086;6.588;2023-03-25T03:44:37;92497.78;;;2.86;57.38
67377;BME280;54261;46.086;6.588;2023-03-25T03:49:46;92502.97;;;4.93;52.65
67377;BME280;54261;46.086;6.588;2023-03-25T03:54:55;92506.13;;;6.50;52.22
67377;BME280;54261;46.086;6.588;2023-03-25T04:00:07;92492.00;;;4.00;52.87
67377;BME280;54261;46.086;6.588;2023-03-25T04:05:15;92498.13;;;5.00;48.41
67377;BME280;54261;46.086;6.588;2023-03-25T04:10:26;92493.22;;;5.80;50.10
67377;BME280;54261;46.086;6.588;2023-03-25T04:15:36;92490.88;;;7.45;46.11
67377;BME280;54261;46.086;6.588;2023-03-25T04:20:38;92493.53;;;8.24;45.23
67377;BME280;54261;46.086;6.588;2023-03-25T04:25:45;92471.88;;;7.32;44.55
67377;BME280;54261;46.086;6.588;2023-03-25T04:30:55;92449.63;;;6.29;46.82
67377;BME280;54261;46.086;6.588;2023-03-25T04:36:00;92451.28;;;5.72;47.53
67377;BME280;54261;46.086;6.588;2023-03-25T04:41:02;92472.38;;;7.20;45.18
67377;BME280;54261;46.086;6.588;2023-03-25T04:46:12;92461.84;;;5.34;47.35
67377;BME280;54261;46.086;6.588;2023-03-25T04:51:14;92470.19;;;6.09;46.34
67377;BME280;54261;46.086;6.588;2023-03-25T04:56:18;92480.38;;;7.34;45.15
67377;BME280;54261;46.086;6.588;2023-03-25T05:01:27;92492.31;;;6.95;45.97
67377;BME280;54261;46.086;6.588;2023-03-25T05:06:36;92512.59;;;7.24;44.20
67377;BME280;54261;46.086;6.588;2023-03-25T05:11:42;92520.94;;;7.92;43.91
67377;BME280;54261;46.086;6.588;2023-03-25T05:16:45;92556.84;;;6.45;45.88
67377;BME280;54261;46.086;6.588;2023-03-25T05:21:47;92536.16;;;4.36;51.18
67377;BME280;54261;46.086;6.588;2023-03-25T05:26:49;92547.91;;;2.67;59.40
67377;BME280;54261;46.086;6.588;2023-03-25T05:31:50;92552.09;;;5.30;52.13
67377;BME280;54261;46.086;6.588;2023-03-25T05:36:52;92551.00;;;5.61;49.56
67377;BME280;54261;46.086;6.588;2023-03-25T05:41:54;92541.09;;;5.12;51.32
67377;BME280;54261;46.086;6.588;2023-03-25T05:46:56;92546.44;;;5.86;48.41
67377;BME280;54261;46.086;6.588;2023-03-25T05:52:02;92566.34;;;6.32;47.54
67377;BME280;54261;46.086;6.588;2023-03-25T05:57:04;92556.44;;;6.71;46.94
67377;BME280;54261;46.086;6.588;2023-03-25T06:02:07;92570.88;;;6.89;47.05
67377;BME280;54261;46.086;6.588;2023-03-25T06:07:13;92571.25;;;6.44;46.96
67377;BME280;54261;46.086;6.588;2023-03-25T06:12:22;92561.03;;;7.17;45.21
67377;BME280;54261;46.086;6.588;2023-03-25T06:17:24;92552.94;;;6.37;46.41
67377;BME280;54261;46.086;6.588;2023-03-25T06:22:25;92560.53;;;4.78;50.99
67377;BME280;54261;46.086;6.588;2023-03-25T06:27:28;92552.75;;;4.58;49.90
67377;BME280;54261;46.086;6.588;2023-03-25T06:32:29;92581.50;;;3.34;52.98
67377;BME280;54261;46.086;6.588;2023-03-25T06:37:32;92569.38;;;5.03;50.95
67377;BME280;54261;46.086;6.588;2023-03-25T06:42:38;92557.47;;;5.25;47.84
67377;BME280;54261;46.086;6.588;2023-03-25T06:48:00;92551.53;;;4.39;49.69
67377;BME280;54261;46.086;6.588;2023-03-25T06:53:02;92547.69;;;3.61;52.24
67377;BME280;54261;46.086;6.588;2023-03-25T06:58:04;92548.59;;;1.16;58.21
67377;BME280;54261;46.086;6.588;2023-03-25T07:03:06;92545.47;;;3.18;51.50
67377;BME280;54261;46.086;6.588;2023-03-25T07:08:08;92543.81;;;3.37;52.75
67377;BME280;54261;46.086;6.588;2023-03-25T07:13:10;92540.81;;;3.49;50.32
67377;BME280;54261;46.086;6.588;2023-03-25T07:18:12;92540.66;;;3.25;52.32
67377;BME280;54261;46.086;6.588;2023-03-25T07:23:14;92541.56;;;3.65;51.36
67377;BME280;54261;46.086;6.588;2023-03-25T07:28:16;92542.84;;;2.97;52.73
67377;BME280;54261;46.086;6.588;2023-03-25T07:33:20;92512.16;;;2.65;53.07
67377;BME280;54261;46.086;6.588;2023-03-25T07:38:22;92538.06;;;4.31;48.48
67377;BME280;54261;46.086;6.588;2023-03-25T07:43:24;92537.31;;;6.11;46.33
67377;BME280;54261;46.086;6.588;2023-03-25T07:48:30;92525.59;;;6.84;44.62
67377;BME280;54261;46.086;6.588;2023-03-25T07:53:32;92531.09;;;1.79;54.23
67377;BME280;54261;46.086;6.588;2023-03-25T07:58:34;92525.00;;;1.63;56.95
67377;BME280;54261;46.086;6.588;2023-03-25T08:03:36;92527.22;;;-0.46;59.91
67377;BME280;54261;46.086;6.588;2023-03-25T08:08:40;92548.13;;;1.29;55.00
67377;BME280;54261;46.086;6.588;2023-03-25T08:13:42;92543.88;;;3.82;49.27
67377;BME280;54261;46.086;6.588;2023-03-25T08:18:44;92551.78;;;3.27;51.53
67377;BME280;54261;46.086;6.588;2023-03-25T08:23:46;92550.88;;;4.18;50.99
67377;BME280;54261;46.086;6.588;2023-03-25T08:28:48;92557.06;;;6.48;47.48
67377;BME280;54261;46.086;6.588;2023-03-25T08:33:50;92566.75;;;6.58;47.60
67377;BME280;54261;46.086;6.588;2023-03-25T08:38:52;92551.31;;;7.97;44.21
67377;BME280;54261;46.086;6.588;2023-03-25T08:43:54;92546.16;;;7.58;44.77
67377;BME280;54261;46.086;6.588;2023-03-25T08:48:56;92564.66;;;7.41;42.09
67377;BME280;54261;46.086;6.588;2023-03-25T08:53:58;92591.00;;;5.56;45.34
67377;BME280;54261;46.086;6.588;2023-03-25T08:59:01;92586.09;;;3.84;48.98
67377;BME280;54261;46.086;6.588;2023-03-25T09:04:03;92578.91;;;2.87;49.72
67377;BME280;54261;46.086;6.588;2023-03-25T09:09:05;92533.84;;;2.93;51.09
67377;BME280;54261;46.086;6.588;2023-03-25T09:14:07;92590.81;;;3.16;50.77
67377;BME280;54261;46.086;6.588;2023-03-25T09:19:09;92615.50;;;1.16;56.68
67377;BME280;54261;46.086;6.588;2023-03-25T09:24:11;92513.88;;;0.21;57.79
67377;BME280;54261;46.086;6.588;2023-03-25T09:29:13;92640.06;;;1.60;57.77
67377;BME280;54261;46.086;6.588;2023-03-25T09:34:15;92630.22;;;3.75;53.71
67377;BME280;54261;46.086;6.588;2023-03-25T09:39:17;92645.72;;;1.79;60.23
67377;BME280;54261;46.086;6.588;2023-03-25T09:50:35;92614.63;;;2.38;59.71
67377;BME280;54261;46.086;6.588;2023-03-25T09:55:41;92628.44;;;3.44;55.00
67377;BME280;54261;46.086;6.588;2023-03-25T10:00:44;92620.22;;;5.31;52.30
67377;BME280;54261;46.086;6.588;2023-03-25T10:21:52;92645.66;;;7.50;46.89
67377;BME280;54261;46.086;6.588;2023-03-25T10:27:07;92641.28;;;5.57;51.30
67377;BME280;54261;46.086;6.588;2023-03-25T10:32:19;92670.63;;;5.52;49.45
67377;BME280;54261;46.086;6.588;2023-03-25T10:37:33;92675.41;;;6.72;48.64
67377;BME280;54261;46.086;6.588;2023-03-25T10:42:39;92669.22;;;7.62;47.36
67377;BME280;54261;46.086;6.588;2023-03-25T10:47:45;92644.59;;;6.41;47.74
67377;BME280;54261;46.086;6.588;2023-03-25T10:52:48;92661.44;;;4.14;52.22
67377;BME280;54261;46.086;6.588;2023-03-25T10:57:53;92663.63;;;5.61;53.27
67377;BME280;54261;46.086;6.588;2023-03-25T11:02:56;92660.03;;;6.44;50.94
67377;BME280;54261;46.086;6.588;2023-03-25T11:07:59;92648.97;;;7.75;48.20
67377;BME280;54261;46.086;6.588;2023-03-25T11:13:12;92644.56;;;8.12;48.10
67377;BME280;54261;46.086;6.588;2023-03-25T11:18:21;92638.97;;;7.80;46.83
67377;BME280;54261;46.086;6.588;2023-03-25T11:23:26;92630.28;;;8.17;46.07
67377;BME280;54261;46.086;6.588;2023-03-25T11:33:39;92629.75;;;7.12;50.90
67377;BME280;54261;46.086;6.588;2023-03-25T11:38:46;92523.22;;;6.30;51.64
67377;BME280;54261;46.086;6.588;2023-03-25T11:43:51;92605.22;;;7.71;46.52
67377;BME280;54261;46.086;6.588;2023-03-25T11:48:53;92600.97;;;5.93;48.59
67377;BME280;54261;46.086;6.588;2023-03-25T11:53:58;92606.41;;;7.64;45.95
67377;BME280;54261;46.086;6.588;2023-03-25T11:59:01;92616.44;;;7.26;46.97
67377;BME280;54261;46.086;6.588;2023-03-25T12:04:14;92623.13;;;8.40;45.76
67377;BME280;54261;46.086;6.588;2023-03-25T12:09:16;92618.31;;;7.72;46.17
67377;BME280;54261;46.086;6.588;2023-03-25T12:29:57;92599.53;;;2.28;56.97
67377;BME280;54261;46.086;6.588;2023-03-25T12:56:25;92611.88;;;8.15;45.88
67377;BME280;54261;46.086;6.588;2023-03-25T13:01:38;92610.75;;;4.85;52.06
67377;BME280;54261;46.086;6.588;2023-03-25T13:07:04;92617.41;;;3.92;53.82
67377;BME280;54261;46.086;6.588;2023-03-25T13:12:26;92603.97;;;5.62;49.83
67377;BME280;54261;46.086;6.588;2023-03-25T13:17:33;92599.19;;;3.65;54.52
67377;BME280;54261;46.086;6.588;2023-03-25T13:22:46;92596.50;;;5.35;53.89
67377;BME280;54261;46.086;6.588;2023-03-25T13:27:50;92590.47;;;7.59;47.10
67377;BME280;54261;46.086;6.588;2023-03-25T13:32:56;92591.97;;;3.76;51.32
67377;BME280;54261;46.086;6.588;2023-03-25T13:38:10;92572.19;;;6.53;46.29
67377;BME280;54261;46.086;6.588;2023-03-25T13:48:49;92578.50;;;6.00;48.82
67377;BME280;54261;46.086;6.588;2023-03-25T14:10:24;92573.97;;;9.10;40.25
67377;BME280;54261;46.086;6.588;2023-03-25T14:15:31;92573.97;;;7.85;42.67
67377;BME280;54261;46.086;6.588;2023-03-25T14:20:37;92568.38;;;7.12;43.70
67377;BME280;54261;46.086;6.588;2023-03-25T14:25:46;92557.13;;;6.43;44.83
67377;BME280;54261;46.086;6.588;2023-03-25T14:31:15;92565.84;;;6.30;45.14
67377;BME280;54261;46.086;6.588;2023-03-25T14:42:10;92563.19;;;7.01;43.67
67377;BME280;54261;46.086;6.588;2023-03-25T14:52:40;92560.94;;;9.17;41.97
67377;BME280;54261;46.086;6.588;2023-03-25T14:57:45;92550.47;;;10.28;41.33
67377;BME280;54261;46.086;6.588;2023-03-25T15:03:01;92554.88;;;10.24;40.59
67377;BME280;54261;46.086;6.588;2023-03-25T15:13:28;92538.72;;;9.16;40.82
67377;BME280;54261;46.086;6.588;2023-03-25T15:34:13;92530.25;;;6.59;43.02
67377;BME280;54261;46.086;6.588;2023-03-25T15:55:35;92532.72;;;8.65;42.82
67377;BME280;54261;46.086;6.588;2023-03-25T16:00:44;92534.47;;;9.96;40.30
67377;BME280;54261;46.086;6.588;2023-03-25T16:05:54;92538.34;;;10.48;39.87
67377;BME280;54261;46.086;6.588;2023-03-25T16:11:13;92514.50;;;8.99;41.43
67377;BME280;54261;46.086;6.588;2023-03-25T16:16:16;92529.94;;;9.56;39.90
67377;BME280;54261;46.086;6.588;2023-03-25T16:21:18;92518.66;;;9.37;40.96
67377;BME280;54261;46.086;6.588;2023-03-25T16:31:38;92514.44;;;9.44;41.08
67377;BME280;54261;46.086;6.588;2023-03-25T16:36:45;92502.44;;;9.42;41.45
67377;BME280;54261;46.086;6.588;2023-03-25T16:41:50;92486.81;;;8.72;40.92
67377;BME280;54261;46.086;6.588;2023-03-25T16:46:52;92495.53;;;8.18;43.12
67377;BME280;54261;46.086;6.588;2023-03-25T16:51:56;92484.94;;;9.35;41.63
67377;BME280;54261;46.086;6.588;2023-03-25T16:56:59;92504.88;;;10.45;40.28
67377;BME280;54261;46.086;6.588;2023-03-25T17:02:03;92492.81;;;8.32;39.76
67377;BME280;54261;46.086;6.588;2023-03-25T17:07:10;92506.06;;;9.37;39.43
67377;BME280;54261;46.086;6.588;2023-03-25T17:12:18;92486.19;;;7.78;41.04
67377;BME280;54261;46.086;6.588;2023-03-25T17:17:45;92492.63;;;9.28;38.79
67377;BME280;54261;46.086;6.588;2023-03-25T17:23:04;92484.63;;;9.95;38.43
67377;BME280;54261;46.086;6.588;2023-03-25T17:33:52;92476.78;;;4.17;46.29
67377;BME280;54261;46.086;6.588;2023-03-25T17:38:55;92483.75;;;5.93;45.06
67377;BME280;54261;46.086;6.588;2023-03-25T17:43:59;92465.34;;;6.97;44.99
67377;BME280;54261;46.086;6.588;2023-03-25T17:49:12;92467.50;;;7.92;43.06
67377;BME280;54261;46.086;6.588;2023-03-25T17:54:15;92449.34;;;5.97;44.10
67377;BME280;54261;46.086;6.588;2023-03-25T17:59:21;92456.03;;;8.60;42.23
67377;BME280;54261;46.086;6.588;2023-03-25T18:04:23;92454.22;;;9.42;41.05
67377;BME280;54261;46.086;6.588;2023-03-25T18:09:26;92468.78;;;9.49;41.06
67377;BME280;54261;46.086;6.588;2023-03-25T18:14:28;92439.56;;;8.67;42.35
67377;BME280;54261;46.086;6.588;2023-03-25T18:19:30;92461.59;;;9.27;41.24
67377;BME280;54261;46.086;6.588;2023-03-25T18:24:32;92456.13;;;9.01;41.87
67377;BME280;54261;46.086;6.588;2023-03-25T18:29:34;92473.31;;;9.40;41.24
67377;BME280;54261;46.086;6.588;2023-03-25T18:34:37;92481.31;;;9.31;40.33
67377;BME280;54261;46.086;6.588;2023-03-25T18:39:39;92444.88;;;8.90;40.65
67377;BME280;54261;46.086;6.588;2023-03-25T18:44:41;92463.38;;;8.77;40.68
67377;BME280;54261;46.086;6.588;2023-03-25T18:49:43;92452.97;;;8.76;39.82
67377;BME280;54261;46.086;6.588;2023-03-25T18:54:44;92450.13;;;8.04;41.10
67377;BME280;54261;46.086;6.588;2023-03-25T18:59:46;92448.34;;;7.99;41.08
67377;BME280;54261;46.086;6.588;2023-03-25T19:04:48;92467.00;;;7.76;40.62
67377;BME280;54261;46.086;6.588;2023-03-25T19:10:02;92465.75;;;8.11;40.32
67377;BME280;54261;46.086;6.588;2023-03-25T19:15:04;92467.16;;;8.54;39.70
67377;BME280;54261;46.086;6.588;2023-03-25T19:20:07;92444.56;;;8.14;39.29
67377;BME280;54261;46.086;6.588;2023-03-25T19:25:10;92459.31;;;6.91;40.68
67377;BME280;54261;46.086;6.588;2023-03-25T19:30:15;92474.34;;;8.44;39.10
67377;BME280;54261;46.086;6.588;2023-03-25T19:35:20;92474.41;;;8.30;38.66
67377;BME280;54261;46.086;6.588;2023-03-25T19:40:25;92456.41;;;8.45;38.54
67377;BME280;54261;46.086;6.588;2023-03-25T19:45:29;92467.88;;;8.68;38.23
67377;BME280;54261;46.086;6.588;2023-03-25T19:50:33;92464.09;;;8.92;37.80
67377;BME280;54261;46.086;6.588;2023-03-25T19:55:35;92470.31;;;8.10;38.82
67377;BME280;54261;46.086;6.588;2023-03-25T20:00:37;92464.84;;;8.15;38.76
67377;BME280;54261;46.086;6.588;2023-03-25T20:05:39;92466.84;;;8.10;38.79
67377;BME280;54261;46.086;6.588;2023-03-25T20:10:41;92465.94;;;8.14;38.99
67377;BME280;54261;46.086;6.588;2023-03-25T20:15:43;92394.72;;;8.18;37.97
67377;BME280;54261;46.086;6.588;2023-03-25T20:20:45;92417.63;;;8.33;38.40
67377;BME280;54261;46.086;6.588;2023-03-25T20:25:49;92424.38;;;8.31;38.31
67377;BME280;54261;46.086;6.588;2023-03-25T20:30:51;92428.47;;;7.91;38.75
67377;BME280;54261;46.086;6.588;2023-03-25T20:35:53;92425.06;;;8.14;39.49
67377;BME280;54261;46.086;6.588;2023-03-25T20:40:55;92407.16;;;7.63;40.11
67377;BME280;54261;46.086;6.588;2023-03-25T20:45:57;92418.34;;;8.25;39.55
67377;BME280;54261;46.086;6.588;2023-03-25T20:51:04;92431.63;;;8.85;39.31
67377;BME280;54261;46.086;6.588;2023-03-25T20:56:07;92393.19;;;8.81;38.75
67377;BME280;54261;46.086;6.588;2023-03-25T21:01:10;92423.13;;;9.14;37.85
67377;BME280;54261;46.086;6.588;2023-03-25T21:06:12;92389.16;;;8.92;38.26
67377;BME280;54261;46.086;6.588;2023-03-25T21:11:21;92401.00;;;8.14;39.93
67377;BME280;54261;46.086;6.588;2023-03-25T21:16:23;92372.59;;;8.49;38.04
67377;BME280;54261;46.086;6.588;2023-03-25T21:21:25;92389.78;;;8.57;37.92
67377;BME280;54261;46.086;6.588;2023-03-25T21:26:27;92358.38;;;8.72;38.26
67377;BME280;54261;46.086;6.588;2023-03-25T21:31:29;92367.88;;;8.01;38.53
67377;BME280;54261;46.086;6.588;2023-03-25T21:36:31;92348.44;;;8.72;37.84
67377;BME280;54261;46.086;6.588;2023-03-25T21:41:34;92349.81;;;7.84;38.64
67377;BME280;54261;46.086;6.588;2023-03-25T21:46:35;92349.50;;;7.85;38.59
67377;BME280;54261;46.086;6.588;2023-03-25T21:51:38;92348.94;;;8.34;38.54
67377;BME280;54261;46.086;6.588;2023-03-25T21:56:44;92374.63;;;7.61;38.23
67377;BME280;54261;46.086;6.588;2023-03-25T22:01:47;92368.00;;;8.18;38.31
67377;BME280;54261;46.086;6.588;2023-03-25T22:06:49;92384.94;;;8.68;37.62
67377;BME280;54261;46.086;6.588;2023-03-25T22:11:51;92337.81;;;8.18;37.74
67377;BME280;54261;46.086;6.588;2023-03-25T22:16:52;92356.34;;;6.15;40.42
67377;BME280;54261;46.086;6.588;2023-03-25T22:21:54;92341.22;;;6.71;39.88
67377;BME280;54261;46.086;6.588;2023-03-25T22:26:56;92325.44;;;5.80;40.32
67377;BME280;54261;46.086;6.588;2023-03-25T22:31:58;92359.63;;;7.37;39.54
67377;BME280;54261;46.086;6.588;2023-03-25T22:37:07;92327.75;;;8.15;37.86
67377;BME280;54261;46.086;6.588;2023-03-25T22:42:08;92322.81;;;8.08;38.02
67377;BME280;54261;46.086;6.588;2023-03-25T22:47:11;92348.97;;;8.20;38.44
67377;BME280;54261;46.086;6.588;2023-03-25T22:52:13;92329.94;;;7.53;39.61
67377;BME280;54261;46.086;6.588;2023-03-25T22:57:14;92338.78;;;7.99;39.29
67377;BME280;54261;46.086;6.588;2023-03-25T23:02:18;92345.44;;;6.44;42.58
67377;BME280;54261;46.086;6.588;2023-03-25T23:07:20;92331.13;;;7.47;40.55
67377;BME280;54261;46.086;6.588;2023-03-25T23:12:23;92301.28;;;7.08;40.37
67377;BME280;54261;46.086;6.588;2023-03-25T23:17:26;92296.16;;;7.12;40.14
67377;BME280;54261;46.086;6.588;2023-03-25T23:22:27;92278.00;;;6.30;41.54
67377;BME280;54261;46.086;6.588;2023-03-25T23:27:30;92259.38;;;7.08;39.88
67377;BME280;54261;46.086;6.588;2023-03-25T23:32:34;92262.56;;;6.82;40.69
67377;BME280;54261;46.086;6.588;2023-03-25T23:37:36;92256.66;;;6.16;40.03
67377;BME280;54261;46.086;6.588;2023-03-25T23:42:38;92273.94;;;6.46;40.62
67377;BME280;54261;46.086;6.588;2023-03-25T23:47:40;92248.94;;;6.42;39.55
67377;BME280;54261;46.086;6.588;2023-03-25T23:52:42;92254.75;;;5.55;40.42
67377;BME280;54261;46.086;6.588;2023-03-25T23:57:43;92265.13;;;4.36;44.05
